This is the latest recevied weather packets stored in our database for station/object LKNA. If no packets are shown the sender has not sent any weather packets the latest 1 day(s).
| Time | Temp. | Humidity | Pressure | Rain* | Wind** | Luminosity | Snow |
|---|---|---|---|---|---|---|---|
| 1778176083 | 15° C | 58% | 1012 hPa | - | - | - | - |
| 1778175182 | 15° C | 58% | 1012 hPa | - | - | - | - |
| 1778174283 | 16.67° C | 48% | 1012 hPa | - | - | - | - |
| 1778173382 | 16.67° C | 48% | 1012 hPa | - | - | - | - |
| 1778172483 | 16.67° C | 51% | 1012 hPa | - | - | - | - |
| 1778171582 | 16.67° C | 51% | 1012 hPa | - | - | - | - |
| 1778170683 | 16.67° C | 55% | 1012 hPa | - | - | - | - |
| 1778169783 | 16.67° C | 55% | 1012 hPa | - | - | - | - |
| 1778168883 | 15.56° C | 63% | 1012 hPa | - | - | - | - |
| 1778167983 | 15.56° C | 63% | 1012 hPa | - | - | - | - |
| 1778167083 | 16.67° C | 59% | 1012 hPa | - | - | - | - |
| 1778166183 | 16.67° C | 59% | 1012 hPa | - | - | - | - |
| 1778165283 | 15° C | 62% | 1012 hPa | - | - | - | - |
| 1778164382 | 15° C | 62% | 1012 hPa | - | - | - | - |
| 1778162582 | 17.78° C | 42% | 1012 hPa | - | - | - | - |
| 1778161683 | 17.78° C | 52% | 1012 hPa | - | - | - | - |
| 1778160782 | 17.78° C | 52% | 1012 hPa | - | - | - | - |
| 1778159883 | 17.78° C | 42% | 1012 hPa | - | - | - | - |
| 1778158983 | 17.78° C | 42% | 1012 hPa | - | - | - | - |
| 1778158083 | 17.78° C | 42% | 1012 hPa | - | - | - | - |
| 1778157183 | 17.78° C | 42% | 1012 hPa | - | - | - | - |
| 1778156283 | 18.89° C | 39% | 1012 hPa | - | - | - | - |
| 1778155383 | 18.89° C | 39% | 1012 hPa | - | - | - | - |
| 1778154484 | 17.78° C | 45% | 1012 hPa | - | - | - | - |
| 1778153583 | 17.78° C | 45% | 1012 hPa | - | - | - | - |
* Rain since midnight (hover to see other rain measurements)
** Current wind speed in m/s (hover to see current wind gust speed)